Time;durP1;ratioP1;P1;durP2;ratioP2;P2;SDS_P1;SDS_P2;PMS_P1;PMS_P2;Temp;Humidity;BMP_temperature;BMP_pressure;BME280_temperature;BME280_humidity;BME280_pressure;Samples;Min_cycle;Max_cycle;Signal;HPM_P1;HPM_P2
2023/09/20 00:00:51;;;;;;;10.15;3.53;;;;;;;17.02;87.42;100330.44;5031257;28;20046;-81
2023/09/20 00:03:19;;;;;;;6.13;3.60;;;;;;;16.94;87.65;100326.22;5030804;28;20092;-82
2023/09/20 00:05:47;;;;;;;8.77;3.90;;;;;;;16.96;87.60;100329.47;5034168;28;20053;-81
2023/09/20 00:08:14;;;;;;;8.40;3.80;;;;;;;16.97;87.70;100327.63;5033726;28;20045;-81
2023/09/20 00:10:45;;;;;;;6.93;3.60;;;;;;;16.88;87.97;100330.47;5035096;28;20157;-81
2023/09/20 00:13:12;;;;;;;6.13;3.55;;;;;;;16.89;88.20;100331.28;5036924;28;20046;-82
2023/09/20 00:15:40;;;;;;;9.57;3.90;;;;;;;16.91;88.61;100334.56;5031007;28;20084;-81
2023/09/20 00:18:07;;;;;;;8.90;3.85;;;;;;;16.81;89.08;100324.38;5022069;28;20076;-80
2023/09/20 00:20:35;;;;;;;6.78;3.55;;;;;;;16.87;89.11;100339.44;5014666;28;20046;-79
2023/09/20 00:23:02;;;;;;;9.25;3.53;;;;;;;16.83;89.20;100332.09;5032117;28;20418;-80
2023/09/20 00:25:29;;;;;;;7.25;3.60;;;;;;;16.84;89.13;100328.44;5026068;28;20053;-79
2023/09/20 00:27:56;;;;;;;8.25;3.90;;;;;;;16.83;88.96;100330.28;5020534;28;20550;-79
2023/09/20 00:30:22;;;;;;;8.52;3.80;;;;;;;16.83;89.20;100332.09;5030802;28;20110;-81
2023/09/20 00:32:50;;;;;;;8.73;3.80;;;;;;;16.83;89.23;100332.91;5022468;28;20066;-80
2023/09/20 00:35:18;;;;;;;10.90;3.88;;;;;;;16.85;89.35;100328.25;5025416;28;20053;-81
2023/09/20 00:37:46;;;;;;;8.68;3.70;;;;;;;16.81;89.97;100328.84;5032598;28;20054;-80
2023/09/20 00:40:15;;;;;;;7.53;3.97;;;;;;;16.83;89.78;100327.63;5022315;28;20045;-81
2023/09/20 00:42:42;;;;;;;10.27;3.63;;;;;;;16.83;89.82;100332.91;5016825;28;20046;-80
2023/09/20 00:45:10;;;;;;;10.75;3.67;;;;;;;16.86;89.46;100332.50;5018959;28;20494;-81
2023/09/20 00:47:40;;;;;;;6.25;3.80;;;;;;;16.86;89.75;100339.63;5023920;28;20238;-80
2023/09/20 00:50:10;;;;;;;7.85;4.00;;;;;;;16.83;89.88;100332.91;5020810;28;20255;-79
2023/09/20 00:52:39;;;;;;;7.45;3.58;;;;;;;16.84;90.31;100342.47;5020617;28;20137;-82
2023/09/20 00:55:07;;;;;;;7.28;3.47;;;;;;;16.83;89.96;100332.91;5017817;28;20533;-81
2023/09/20 00:57:34;;;;;;;6.47;3.63;;;;;;;16.77;90.23;100339.00;5002651;28;20440;-81
2023/09/20 01:00:07;;;;;;;7.47;3.78;;;;;;;16.75;90.14;100335.75;5017309;28;20058;-81
2023/09/20 01:02:34;;;;;;;9.18;3.85;;;;;;;16.81;90.44;100334.94;5015940;28;20050;-81
2023/09/20 01:05:04;;;;;;;6.43;3.75;;;;;;;16.84;90.35;100344.31;5021874;28;20046;-81
2023/09/20 01:07:32;;;;;;;10.07;3.70;;;;;;;16.82;90.41;100330.47;5018030;28;20053;-81
2023/09/20 01:09:59;;;;;;;7.05;3.78;;;;;;;16.85;90.43;100335.38;5009764;28;20146;-81
2023/09/20 01:12:26;;;;;;;5.40;3.75;;;;;;;16.79;90.49;100330.88;5015461;28;20105;-80
2023/09/20 01:14:53;;;;;;;10.00;3.78;;;;;;;16.75;90.68;100333.13;5014167;28;20114;-80
2023/09/20 01:17:20;;;;;;;9.60;4.10;;;;;;;16.77;90.66;100331.09;5022130;28;20049;-81
2023/09/20 01:19:47;;;;;;;8.07;3.95;;;;;;;16.79;90.67;100326.41;5015376;28;20061;-81
2023/09/20 01:22:15;;;;;;;6.70;3.78;;;;;;;16.78;90.79;100321.34;5005277;28;20050;-84
2023/09/20 01:24:43;;;;;;;8.43;3.97;;;;;;;16.75;90.95;100330.47;5007396;28;20053;-81
2023/09/20 01:27:10;;;;;;;10.27;3.65;;;;;;;16.78;90.88;100322.16;5003718;28;20042;-81
2023/09/20 01:29:38;;;;;;;7.15;3.90;;;;;;;16.77;90.92;100323.16;5023186;28;20506;-81
2023/09/20 01:32:05;;;;;;;10.57;3.67;;;;;;;16.72;91.19;100317.66;5016480;28;20470;-82
2023/09/20 01:34:31;;;;;;;8.10;4.22;;;;;;;16.71;91.31;100323.97;5025901;28;20073;-81
2023/09/20 01:36:58;;;;;;;10.73;3.97;;;;;;;16.76;91.55;100318.91;5014610;28;20046;-80
2023/09/20 01:39:27;;;;;;;10.07;4.32;;;;;;;16.69;91.57;100315.44;5021225;28;20072;-82
2023/09/20 01:41:53;;;;;;;6.35;4.20;;;;;;;16.70;91.81;100321.53;5022120;28;20070;-82
2023/09/20 01:44:22;;;;;;;12.00;3.90;;;;;;;16.71;91.77;100310.75;5021196;28;20049;-83
2023/09/20 01:46:49;;;;;;;6.20;3.63;;;;;;;16.77;91.55;100304.66;5018300;28;20467;-81
2023/09/20 01:49:18;;;;;;;8.45;4.07;;;;;;;16.78;91.87;100308.94;5010332;28;20509;-80
2023/09/20 01:51:44;;;;;;;11.13;4.10;;;;;;;16.69;92.04;100299.59;5005633;28;20417;-80
2023/09/20 01:54:11;;;;;;;7.80;3.70;;;;;;;16.72;91.92;100309.75;5016206;28;20061;-81
2023/09/20 01:56:39;;;;;;;9.23;3.80;;;;;;;16.69;92.24;100312.78;5030016;28;20085;-80
2023/09/20 01:59:07;;;;;;;7.38;4.40;;;;;;;16.71;92.31;100296.75;5013702;28;20050;-80
2023/09/20 02:01:34;;;;;;;9.35;4.05;;;;;;;16.68;92.52;100303.25;5013590;28;20049;-82
2023/09/20 02:04:00;;;;;;;13.18;4.25;;;;;;;16.69;92.52;100304.88;5008384;28;20311;-79
2023/09/20 02:06:27;;;;;;;7.30;3.92;;;;;;;16.68;92.54;100303.25;5003192;28;20073;-79
2023/09/20 02:08:54;;;;;;;7.90;4.05;;;;;;;16.72;92.87;100309.75;5018789;28;20049;-80
2023/09/20 02:11:21;;;;;;;8.57;4.35;;;;;;;16.73;92.39;100306.09;5003517;28;20051;-78
2023/09/20 02:13:49;;;;;;;7.20;4.00;;;;;;;16.71;92.53;100304.66;5002069;28;20049;-78
2023/09/20 02:16:17;;;;;;;9.30;4.50;;;;;;;16.74;92.79;100297.16;5003101;28;20050;-78
2023/09/20 02:18:44;;;;;;;11.85;4.05;;;;;;;16.78;92.62;100297.56;5003971;28;20174;-80
2023/09/20 02:21:10;;;;;;;10.57;4.35;;;;;;;16.78;92.30;100295.72;5021647;28;20088;-79
2023/09/20 02:23:37;;;;;;;7.60;4.13;;;;;;;16.82;92.22;100289.00;5010827;28;20060;-81
2023/09/20 02:26:04;;;;;;;9.50;4.28;;;;;;;16.73;92.44;100292.88;5003256;28;20110;-81
2023/09/20 02:28:30;;;;;;;8.35;3.72;;;;;;;16.71;92.75;100299.38;5004984;28;20543;-81
2023/09/20 02:31:00;;;;;;;8.82;3.92;;;;;;;16.70;92.82;100305.69;5004322;28;20486;-82
2023/09/20 02:33:28;;;;;;;9.32;4.60;;;;;;;16.64;93.31;100301.19;5005824;28;20069;-80
2023/09/20 02:35:55;;;;;;;8.05;4.45;;;;;;;16.59;93.42;100299.16;5015007;28;20085;-80
2023/09/20 02:38:21;;;;;;;8.35;4.22;;;;;;;16.49;93.77;100289.00;5013836;28;20563;-79
2023/09/20 02:40:50;;;;;;;11.02;4.80;;;;;;;16.44;94.39;100296.72;5010406;28;20109;-79
2023/09/20 02:43:17;;;;;;;6.80;4.30;;;;;;;16.33;94.61;100293.84;5020595;28;20058;-79
2023/09/20 02:45:46;;;;;;;7.55;4.70;;;;;;;16.34;94.54;100287.56;5012852;28;20128;-81
2023/09/20 02:48:14;;;;;;;10.25;4.68;;;;;;;16.21;94.92;100286.53;5012594;28;20053;-80
2023/09/20 02:50:41;;;;;;;9.02;4.97;;;;;;;16.02;95.72;100289.16;5013379;28;20079;-80
2023/09/20 02:53:09;;;;;;;8.30;4.45;;;;;;;15.98;96.21;100288.72;5004225;28;20496;-80
2023/09/20 03:05:32;;;;;;;;;;;;;;;;;;;;;
2023/09/20 03:37:46;;;;;;;13.27;5.60;;;;;;;15.44;99.41;100252.59;4786119;29;20058;-78
2023/09/20 03:40:23;;;;;;;10.27;4.32;;;;;;;15.51;99.71;100268.47;4863831;29;20064;-78
2023/09/20 03:42:52;;;;;;;6.45;4.20;;;;;;;15.37;99.92;100246.50;4937126;28;20150;-77
2023/09/20 03:45:23;;;;;;;8.43;5.10;;;;;;;15.43;99.99;100255.44;5034782;28;20507;-78
2023/09/20 03:47:53;;;;;;;9.48;4.82;;;;;;;15.27;100.00;100246.84;5035045;28;20491;-78
2023/09/20 03:53:37;;;;;;;;;;;;;;;;;;;;;
2023/09/20 03:56:17;;;;;;;7.78;4.40;;;;;;;15.25;100.00;100237.50;5031825;28;20053;-78
2023/09/20 03:58:57;;;;;;;9.10;4.22;;;;;;;15.36;100.00;100260.69;5034099;28;20099;-79
2023/09/20 04:01:36;;;;;;;9.25;4.70;;;;;;;15.17;100.00;100245.56;5049715;28;20069;-78
2023/09/20 04:04:04;;;;;;;7.38;5.07;;;;;;;15.22;100.00;100251.88;5043683;28;20049;-77
2023/09/20 04:06:34;;;;;;;8.00;4.93;;;;;;;15.20;100.00;100253.09;5034166;28;20115;-77
2023/09/20 04:09:09;;;;;;;10.63;4.80;;;;;;;15.14;100.00;100251.22;5034288;28;20103;-77
2023/09/20 04:11:37;;;;;;;8.25;4.70;;;;;;;15.22;100.00;100253.72;5021172;28;20045;-77
2023/09/20 04:14:05;;;;;;;11.65;5.00;;;;;;;15.19;100.00;100243.56;5032972;28;20527;-80
2023/09/20 04:16:36;;;;;;;10.75;4.70;;;;;;;15.16;100.00;100243.94;5026680;28;20489;-78
2023/09/20 04:19:04;;;;;;;7.72;4.38;;;;;;;15.11;100.00;100233.19;5034908;28;20140;-78
2023/09/20 04:21:37;;;;;;;12.02;4.97;;;;;;;15.18;100.00;100236.66;5035424;28;20049;-79
2023/09/20 04:24:05;;;;;;;8.48;4.85;;;;;;;15.15;100.00;100235.22;5027245;28;20054;-79
2023/09/20 04:27:02;;;;;;;8.18;4.85;;;;;;;15.20;100.00;100239.91;5136528;22;20103;-78
2023/09/20 04:39:33;;;;;;;10.07;4.63;;;;;;;15.18;100.00;100224.28;4989085;22;20526;-82
2023/09/20 04:42:01;;;;;;;8.35;4.65;;;;;;;15.05;100.00;100218.16;5011887;28;20137;-81
2023/09/20 04:44:28;;;;;;;6.97;4.15;;;;;;;15.12;100.00;100232.97;5017371;28;20070;-81
2023/09/20 04:46:57;;;;;;;12.43;4.93;;;;;;;15.04;100.00;100219.19;5019393;28;20444;-80
2023/09/20 04:49:24;;;;;;;9.35;4.82;;;;;;;15.04;100.00;100227.91;5019306;28;20546;-81
2023/09/20 04:51:51;;;;;;;8.15;4.40;;;;;;;15.01;100.00;100235.38;4992708;28;20082;-81
2023/09/20 05:03:03;;;;;;;12.07;4.65;;;;;;;14.96;100.00;100227.22;5158489;22;20061;-81
2023/09/20 05:05:57;;;;;;;11.60;4.90;;;;;;;15.05;100.00;100237.44;5052602;28;20041;-82
2023/09/20 05:08:31;;;;;;;10.90;5.15;;;;;;;14.92;100.00;100217.09;5042423;28;20061;-81
2023/09/20 05:11:24;;;;;;;8.73;4.95;;;;;;;14.92;100.00;100213.63;5044014;28;20047;-81
2023/09/20 05:13:53;;;;;;;9.30;4.88;;;;;;;15.01;100.00;100223.00;5035728;28;20038;-80
2023/09/20 05:16:20;;;;;;;9.40;5.38;;;;;;;15.06;100.00;100232.97;5046623;28;20034;-80
2023/09/20 05:21:38;;;;;;;10.93;5.20;;;;;;;15.01;100.00;100223.00;5034956;28;20110;-81
2023/09/20 05:24:05;;;;;;;9.20;5.70;;;;;;;15.01;100.00;100240.66;5050548;28;20045;-81
2023/09/20 05:26:32;;;;;;;8.48;5.07;;;;;;;15.04;100.00;100235.00;5038797;28;20499;-81
2023/09/20 05:28:59;;;;;;;9.43;5.35;;;;;;;15.07;100.00;100229.31;5048130;28;20053;-81
2023/09/20 05:31:26;;;;;;;11.70;4.95;;;;;;;15.09;100.00;100229.94;5050093;28;20126;-81
2023/09/20 05:33:56;;;;;;;8.95;5.03;;;;;;;15.16;100.00;100225.50;5050198;28;20048;-80
2023/09/20 05:36:24;;;;;;;7.93;4.68;;;;;;;15.23;100.00;100226.34;5034314;28;20050;-80
2023/09/20 05:38:51;;;;;;;6.88;4.25;;;;;;;15.23;100.00;100208.72;5045370;28;20116;-80
2023/09/20 05:41:18;;;;;;;10.43;4.60;;;;;;;15.29;100.00;100212.38;5052548;28;20080;-80
2023/09/20 05:43:45;;;;;;;8.07;4.97;;;;;;;15.28;100.00;100208.13;5058646;28;20051;-79
2023/09/20 05:46:13;;;;;;;7.70;4.25;;;;;;;15.36;100.00;100199.22;5044409;28;20060;-81
2023/09/20 05:48:39;;;;;;;13.85;4.57;;;;;;;15.45;100.00;100208.59;5051538;28;20102;-80
2023/09/20 05:51:14;;;;;;;8.35;4.10;;;;;;;15.49;100.00;100207.19;5052116;28;20087;-79
2023/09/20 05:53:40;;;;;;;7.35;4.38;;;;;;;15.54;100.00;100202.13;5052505;28;20079;-80
2023/09/20 05:56:10;;;;;;;8.40;5.47;;;;;;;15.54;100.00;100195.03;5046564;28;20050;-80
2023/09/20 05:58:38;;;;;;;11.00;4.88;;;;;;;15.62;100.00;100203.78;5033795;28;20053;-80
2023/09/20 06:01:05;;;;;;;7.32;5.18;;;;;;;15.68;100.00;100200.34;5051833;28;20070;-81
2023/09/20 06:03:31;;;;;;;11.55;5.38;;;;;;;15.64;100.00;100188.59;5047671;28;20037;-80
2023/09/20 06:05:58;;;;;;;9.90;4.57;;;;;;;15.65;100.00;100200.75;5041396;28;20050;-80
2023/09/20 06:08:26;;;;;;;8.80;4.90;;;;;;;15.77;100.00;100199.16;5034576;28;20700;-81
2023/09/20 06:10:53;;;;;;;10.20;5.55;;;;;;;15.81;100.00;100200.41;5046606;28;20561;-80
2023/09/20 06:13:20;;;;;;;10.43;5.25;;;;;;;15.89;100.00;100202.84;5042026;28;20057;-80
2023/09/20 06:15:47;;;;;;;11.15;4.50;;;;;;;15.98;100.00;100204.28;5038466;28;20129;-80
2023/09/20 06:18:15;;;;;;;8.35;4.30;;;;;;;16.10;100.00;100205.28;5028817;28;20111;-80
2023/09/20 06:20:45;;;;;;;7.90;4.93;;;;;;;16.19;100.00;100198.81;5027713;28;20045;-80
2023/09/20 06:23:12;;;;;;;9.63;4.28;;;;;;;16.13;100.00;100199.59;5027082;28;20068;-80
2023/09/20 06:25:41;;;;;;;7.80;4.40;;;;;;;16.21;100.00;100196.78;5027652;28;20105;-80
2023/09/20 06:28:09;;;;;;;8.00;4.22;;;;;;;16.33;100.00;100196.16;5018460;28;20185;-80
2023/09/20 06:30:35;;;;;;;8.35;4.60;;;;;;;16.45;99.96;100197.19;5025330;28;20115;-80
2023/09/20 06:33:02;;;;;;;12.60;5.15;;;;;;;16.62;98.83;100197.53;5036506;28;20042;-79
2023/09/20 06:35:30;;;;;;;10.48;4.45;;;;;;;16.82;97.79;100193.06;5024614;28;20506;-77
2023/09/20 06:37:58;;;;;;;7.20;4.70;;;;;;;16.89;97.19;100207.91;5024180;28;20081;-78
2023/09/20 06:40:33;;;;;;;7.35;4.60;;;;;;;16.82;96.63;100193.88;5022997;28;20060;-78
2023/09/20 06:43:02;;;;;;;10.82;4.90;;;;;;;16.92;96.61;100189.00;5021728;28;20049;-78
2023/09/20 06:45:29;;;;;;;9.02;5.32;;;;;;;16.88;96.58;100193.06;5023226;28;20046;-78
2023/09/20 06:47:56;;;;;;;9.50;4.93;;;;;;;16.94;96.97;100195.91;5019590;28;20046;-78
2023/09/20 06:50:23;;;;;;;8.25;4.68;;;;;;;17.00;96.87;100189.78;5026721;28;20056;-78
2023/09/20 06:52:51;;;;;;;6.65;4.45;;;;;;;17.02;96.84;100182.44;5035343;28;20425;-80
2023/09/20 06:55:19;;;;;;;11.05;4.60;;;;;;;17.09;96.69;100199.09;5035150;28;20089;-78
2023/09/20 06:57:47;;;;;;;9.23;4.63;;;;;;;17.13;96.28;100195.00;5033086;28;20045;-79
2023/09/20 07:00:24;;;;;;;6.43;4.40;;;;;;;17.11;96.56;100197.84;5033350;28;20049;-77
2023/09/20 07:02:51;;;;;;;7.88;4.88;;;;;;;17.13;96.43;100200.28;5034082;28;20048;-79
2023/09/20 07:05:18;;;;;;;9.98;4.53;;;;;;;17.10;96.18;100203.34;5045569;28;20132;-79
2023/09/20 07:07:46;;;;;;;12.23;5.00;;;;;;;17.28;95.90;100203.50;5046846;28;20057;-79
2023/09/20 07:10:15;;;;;;;11.32;4.53;;;;;;;17.24;95.63;100200.44;5044443;28;20464;-79
2023/09/20 07:12:42;;;;;;;9.75;4.45;;;;;;;17.19;95.56;100202.09;5042924;28;20041;-79
2023/09/20 07:15:10;;;;;;;8.43;4.30;;;;;;;17.28;95.93;100202.69;5043890;28;20205;-80
2023/09/20 07:17:40;;;;;;;7.75;4.43;;;;;;;17.40;95.80;100190.44;5036750;28;20073;-79
2023/09/20 07:20:14;;;;;;;20.52;5.43;;;;;;;17.25;95.90;100194.16;5042783;28;20059;-79
2023/09/20 07:22:41;;;;;;;8.23;4.32;;;;;;;17.02;96.27;100185.06;5031301;28;20049;-79
2023/09/20 07:25:16;;;;;;;7.43;4.50;;;;;;;17.27;96.34;100199.22;5040700;28;20072;-79
2023/09/20 07:27:45;;;;;;;6.93;4.13;;;;;;;17.32;95.58;100194.13;5042707;28;20057;-79
2023/09/20 07:30:17;;;;;;;9.32;4.72;;;;;;;17.33;95.33;100197.56;5041345;28;20050;-79
2023/09/20 07:32:46;;;;;;;11.00;4.23;;;;;;;17.42;95.07;100191.84;5035941;28;20046;-79
2023/09/20 07:35:26;;;;;;;9.10;4.32;;;;;;;17.61;94.78;100191.94;5037437;28;20121;-79
2023/09/20 07:37:56;;;;;;;5.78;3.95;;;;;;;17.43;94.94;100184.72;5034623;28;20375;-80
2023/09/20 07:40:26;;;;;;;7.68;3.88;;;;;;;17.56;95.14;100187.28;5040686;28;20053;-79
2023/09/20 07:42:53;;;;;;;8.85;4.55;;;;;;;17.60;94.78;100185.81;5038821;28;20057;-78
2023/09/20 07:45:22;;;;;;;7.97;4.72;;;;;;;17.37;95.17;100191.66;5037967;28;20045;-79
2023/09/20 07:47:50;;;;;;;6.85;4.35;;;;;;;17.25;95.96;100190.69;5039586;28;20113;-79
2023/09/20 07:50:17;;;;;;;7.65;4.30;;;;;;;17.43;96.08;100196.09;5030803;28;20249;-80
2023/09/20 07:52:44;;;;;;;8.75;4.10;;;;;;;17.35;95.87;100188.41;5037697;28;20136;-81
2023/09/20 07:55:11;;;;;;;7.20;4.53;;;;;;;17.44;95.50;100203.03;5034218;28;20053;-84
2023/09/20 07:57:40;;;;;;;7.53;4.30;;;;;;;17.52;95.23;100196.66;5042093;28;20081;-81
2023/09/20 08:00:10;;;;;;;8.90;5.25;;;;;;;17.62;94.96;100197.00;5027726;28;20055;-81
2023/09/20 08:02:38;;;;;;;9.73;5.03;;;;;;;17.67;94.66;100205.16;5033181;28;20045;-80
2023/09/20 08:05:09;;;;;;;8.80;4.80;;;;;;;17.75;93.90;100196.16;5031364;28;20072;-82
2023/09/20 08:07:38;;;;;;;7.50;5.00;;;;;;;17.79;94.11;100194.72;5037001;28;20046;-82
2023/09/20 08:10:06;;;;;;;8.35;4.47;;;;;;;18.04;93.70;100192.06;5028553;28;20512;-82
2023/09/20 08:12:33;;;;;;;13.55;4.95;;;;;;;18.26;92.53;100189.88;5031579;28;20060;-81
2023/09/20 08:15:00;;;;;;;6.53;4.38;;;;;;;18.35;92.24;100191.22;5029464;28;20132;-82
2023/09/20 08:20:12;;;;;;;8.50;4.18;;;;;;;18.45;91.11;100200.28;5030979;28;20515;-82
2023/09/20 09:01:17;;;;;;;19.35;4.78;;;;;;;19.98;87.06;100189.47;5048844;28;20060;-82
2023/09/20 09:03:44;;;;;;;7.72;4.53;;;;;;;20.04;85.17;100166.50;5048744;28;20049;-82
2023/09/20 09:06:12;;;;;;;9.48;4.10;;;;;;;19.83;85.28;100175.84;5048212;28;20105;-82
2023/09/20 09:08:43;;;;;;;13.15;4.65;;;;;;;19.79;86.18;100180.78;5042549;28;20053;-82
2023/09/20 09:11:10;;;;;;;8.75;4.70;;;;;;;20.02;85.70;100169.41;5041210;28;20217;-83
2023/09/20 09:13:36;;;;;;;7.97;3.97;;;;;;;20.01;85.90;100175.75;5038497;28;20508;-82
2023/09/20 09:16:07;;;;;;;9.07;4.38;;;;;;;19.89;86.22;100183.69;5037500;28;20080;-82
2023/09/20 09:18:34;;;;;;;7.57;4.30;;;;;;;20.18;85.45;100168.72;5041707;28;20439;-82
2023/09/20 09:21:03;;;;;;;9.40;4.63;;;;;;;20.63;84.09;100167.34;5048870;28;20116;-82
2023/09/20 09:23:35;;;;;;;9.35;4.63;;;;;;;20.57;83.35;100163.78;5021253;28;20056;-84
2023/09/20 09:26:03;;;;;;;12.32;4.15;;;;;;;20.97;83.10;100168.31;5020438;28;20069;-83
2023/09/20 09:28:31;;;;;;;8.35;4.45;;;;;;;21.50;81.36;100157.41;5048448;28;20144;-83
2023/09/20 09:31:00;;;;;;;8.57;4.32;;;;;;;21.84;80.53;100161.72;5046431;28;20049;-83
2023/09/20 09:33:28;;;;;;;7.18;4.10;;;;;;;21.86;78.96;100140.16;5030612;28;20092;-83
2023/09/20 09:35:54;;;;;;;11.85;4.40;;;;;;;21.74;78.94;100144.78;5042009;28;20052;-82
2023/09/20 09:38:22;;;;;;;10.45;3.95;;;;;;;22.07;79.70;100165.31;5023395;28;20360;-82
2023/09/20 09:40:53;;;;;;;9.10;3.85;;;;;;;22.42;77.64;100149.03;5034895;28;20148;-81
2023/09/20 09:43:23;;;;;;;6.68;3.45;;;;;;;22.61;75.98;100145.06;5042496;28;20049;-83
2023/09/20 09:45:50;;;;;;;5.93;3.08;;;;;;;22.79;73.74;100130.63;5040064;28;20041;-82
2023/09/20 09:48:17;;;;;;;4.28;2.55;;;;;;;22.84;71.98;100122.69;5042009;28;20227;-82
2023/09/20 09:50:46;;;;;;;3.22;2.33;;;;;;;22.81;72.16;100131.19;5033111;28;20113;-82
2023/09/20 09:53:15;;;;;;;5.03;2.53;;;;;;;22.79;71.23;100115.41;5037795;28;20053;-83
2023/09/20 09:55:41;;;;;;;4.22;2.45;;;;;;;23.25;71.07;100117.78;5048122;28;20041;-83
2023/09/20 09:58:09;;;;;;;3.83;2.78;;;;;;;23.40;70.12;100118.75;5041675;28;20518;-83
2023/09/20 10:00:40;;;;;;;7.13;2.42;;;;;;;23.36;68.91;100119.50;5040273;28;20060;-81
2023/09/20 10:03:16;;;;;;;7.25;1.83;;;;;;;23.61;68.84;100121.66;5038953;28;20049;-82
2023/09/20 10:05:46;;;;;;;5.22;2.70;;;;;;;23.66;69.20;100127.00;5031859;28;20076;-81
2023/09/20 10:08:15;;;;;;;3.33;2.45;;;;;;;23.35;68.73;100125.91;5034617;28;20088;-83
2023/09/20 10:10:42;;;;;;;5.00;2.40;;;;;;;22.90;69.93;100134.22;5038946;28;20095;-81
2023/09/20 10:13:12;;;;;;;4.35;2.38;;;;;;;22.69;70.39;100136.59;5038088;28;20056;-82
2023/09/20 10:15:43;;;;;;;4.57;2.45;;;;;;;22.55;70.96;100143.38;5044639;28;20694;-81
2023/09/20 10:18:09;;;;;;;3.08;2.38;;;;;;;22.76;71.07;100142.56;5044659;28;20052;-82
2023/09/20 10:20:58;;;;;;;3.78;2.53;;;;;;;22.54;70.83;100139.09;5026405;28;20136;-81
2023/09/20 10:23:25;;;;;;;4.10;2.40;;;;;;;22.67;70.72;100133.41;5037086;28;20049;-82
2023/09/20 10:25:53;;;;;;;3.30;2.42;;;;;;;22.88;70.23;100134.47;5031068;28;20050;-82
2023/09/20 10:28:20;;;;;;;4.78;2.75;;;;;;;23.11;69.53;100122.72;5043343;28;20065;-82
2023/09/20 10:31:02;;;;;;;6.20;2.80;;;;;;;23.60;68.83;100123.50;5035407;28;20074;-82
2023/09/20 10:33:43;;;;;;;4.07;2.50;;;;;;;23.42;66.21;100076.59;5037585;28;20062;-82
2023/09/20 10:36:12;;;;;;;4.03;2.55;;;;;;;23.20;66.46;100085.69;5044610;28;20045;-82
2023/09/20 10:38:40;;;;;;;9.52;2.80;;;;;;;23.27;65.94;100088.97;5034548;28;20060;-82
2023/09/20 10:41:10;;;;;;;5.40;2.50;;;;;;;23.30;66.05;100097.28;5050668;28;20045;-82
2023/09/20 10:43:51;;;;;;;3.58;2.22;;;;;;;23.22;66.42;100096.94;5034806;28;20080;-82
2023/09/20 10:46:25;;;;;;;3.95;2.25;;;;;;;23.19;66.09;100090.22;5048679;28;20519;-82
2023/09/20 10:48:53;;;;;;;6.18;2.72;;;;;;;23.44;66.06;100081.66;5043016;28;20103;-82
2023/09/20 10:51:41;;;;;;;5.60;2.08;;;;;;;23.54;63.93;100070.31;5043890;28;20077;-82
2023/09/20 10:54:22;;;;;;;4.20;2.65;;;;;;;23.42;64.19;100076.59;5041503;28;20053;-82
2023/09/20 10:57:05;;;;;;;4.25;2.65;;;;;;;23.44;64.50;100069.13;5041192;28;20087;-82
2023/09/20 10:59:32;;;;;;;4.78;2.40;;;;;;;23.42;64.76;100079.25;5044215;28;20568;-82
2023/09/20 11:02:08;;;;;;;4.45;2.67;;;;;;;23.39;64.48;100070.94;5030653;28;20332;-82
2023/09/20 11:04:35;;;;;;;5.88;2.45;;;;;;;23.41;65.46;100090.19;5037292;28;20063;-82
2023/09/20 11:07:02;;;;;;;4.28;2.40;;;;;;;23.53;65.24;100092.69;5036691;28;20108;-82
2023/09/20 11:09:33;;;;;;;2.97;2.42;;;;;;;23.57;65.14;100091.97;5049275;28;20136;-82
2023/09/20 11:12:04;;;;;;;3.72;2.53;;;;;;;23.81;64.91;100084.41;5049654;28;20167;-82
2023/09/20 11:14:35;;;;;;;3.70;2.60;;;;;;;24.22;64.66;100090.00;5038042;28;20056;-83
2023/09/20 11:17:03;;;;;;;4.85;2.65;;;;;;;24.25;63.71;100068.94;5037729;28;20068;-82
2023/09/20 11:19:34;;;;;;;4.15;2.50;;;;;;;24.32;64.17;100066.03;5041347;28;20045;-81
2023/09/20 11:22:01;;;;;;;4.60;2.67;;;;;;;24.34;63.96;100063.91;5042188;28;20491;-82
2023/09/20 11:24:28;;;;;;;3.75;2.55;;;;;;;24.49;63.65;100053.28;5044015;28;20091;-82
2023/09/20 11:26:56;;;;;;;5.43;2.70;;;;;;;24.55;64.50;100068.28;5031787;28;20124;-83
2023/09/20 11:29:22;;;;;;;6.70;2.50;;;;;;;24.22;63.96;100056.06;5021588;28;20061;-83
2023/09/20 11:31:50;;;;;;;5.70;2.80;;;;;;;24.10;64.45;100061.59;5037424;28;20050;-82
2023/09/20 11:34:19;;;;;;;3.15;2.30;;;;;;;23.96;65.41;100068.47;5045464;28;20170;-83
2023/09/20 11:36:53;;;;;;;6.03;2.80;;;;;;;23.78;65.79;100060.84;5026241;28;20050;-82
2023/09/20 11:39:26;;;;;;;4.50;2.53;;;;;;;23.69;66.12;100055.19;5046846;28;20049;-82
2023/09/20 11:41:52;;;;;;;5.65;2.80;;;;;;;23.90;65.90;100050.00;5035835;28;20050;-83
2023/09/20 11:44:20;;;;;;;4.30;2.83;;;;;;;23.63;65.09;100026.81;5045884;28;20133;-82
2023/09/20 11:46:52;;;;;;;4.07;2.65;;;;;;;23.98;65.18;100053.00;5020940;28;20045;-83
2023/09/20 11:49:21;;;;;;;;;;;;;;;24.05;63.95;100026.84;5037023;28;20049;-82
2023/09/20 11:51:51;;;;;;;3.70;2.72;;;;;;;24.28;64.52;100027.50;5041290;28;19970;-82
2023/09/20 11:54:20;;;;;;;7.45;2.80;;;;;;;24.17;63.63;100022.06;5026274;28;20467;-82
2023/09/20 11:56:48;;;;;;;5.70;2.58;;;;;;;24.25;63.50;100004.75;5043199;28;20054;-82
2023/09/20 11:59:19;;;;;;;6.25;3.00;;;;;;;24.26;64.43;100024.28;5038544;28;20160;-82
2023/09/20 12:01:46;;;;;;;5.93;2.70;;;;;;;24.32;63.87;100000.00;5043724;28;20053;-82
2023/09/20 12:04:13;;;;;;;7.03;2.83;;;;;;;24.35;64.41;100004.00;5038121;28;20049;-82
2023/09/20 12:06:40;;;;;;;7.90;2.75;;;;;;;24.36;63.44;99995.72;5040242;28;20056;-82
2023/09/20 12:09:09;;;;;;;6.50;2.78;;;;;;;24.39;63.26;99978.34;5039954;28;20050;-82
2023/09/20 12:11:36;;;;;;;6.03;2.75;;;;;;;24.48;64.09;99992.84;5040421;28;20105;-82
2023/09/20 12:14:03;;;;;;;5.10;2.50;;;;;;;24.65;64.07;99993.38;5048661;28;20060;-82
2023/09/20 12:16:29;;;;;;;5.25;2.80;;;;;;;24.44;63.28;99971.16;5037600;28;20050;-82
2023/09/20 12:18:58;;;;;;;3.97;2.72;;;;;;;24.40;63.98;99975.41;5043340;28;20132;-82
2023/09/20 12:21:25;;;;;;;4.22;3.10;;;;;;;24.29;63.91;99981.78;5021503;28;20046;-81
2023/09/20 12:23:52;;;;;;;5.40;3.10;;;;;;;24.17;64.66;99986.53;5034758;28;20059;-82
2023/09/20 12:26:20;;;;;;;4.60;2.80;;;;;;;24.10;64.94;99976.06;5040619;28;20069;-82
2023/09/20 12:28:46;;;;;;;5.50;2.90;;;;;;;24.15;64.09;99962.72;5040170;28;20109;-82
2023/09/20 12:31:14;;;;;;;6.63;3.10;;;;;;;24.09;63.96;99958.44;5040218;28;20088;-82
2023/09/20 12:33:40;;;;;;;4.28;3.10;;;;;;;24.26;63.86;99952.09;5040537;28;20045;-83
2023/09/20 12:36:11;;;;;;;6.25;3.10;;;;;;;24.16;63.77;99939.47;5055805;28;20072;-80
2023/09/20 12:38:37;;;;;;;5.75;3.08;;;;;;;24.19;64.31;99940.81;5044628;28;20550;-82
2023/09/20 12:41:04;;;;;;;5.40;3.15;;;;;;;24.19;64.55;99949.63;5027421;28;20463;-83
2023/09/20 12:43:32;;;;;;;5.43;3.05;;;;;;;24.38;65.03;99939.31;5037301;28;20133;-81
2023/09/20 12:45:58;;;;;;;5.55;3.22;;;;;;;24.47;63.58;99929.72;5020035;28;20081;-82
2023/09/20 12:48:25;;;;;;;5.57;3.08;;;;;;;24.51;62.84;99925.44;5038464;28;20073;-82
2023/09/20 12:50:54;;;;;;;6.05;3.30;;;;;;;24.56;63.43;99935.34;5042272;28;20085;-83
2023/09/20 12:53:21;;;;;;;4.95;3.78;;;;;;;24.45;63.40;99918.47;5040286;28;20077;-82
2023/09/20 12:55:48;;;;;;;9.32;3.25;;;;;;;24.58;64.15;99934.00;5032579;28;20088;-82
2023/09/20 12:58:16;;;;;;;11.30;4.07;;;;;;;24.65;63.63;99917.69;5046129;28;20458;-83
2023/09/20 13:00:44;;;;;;;5.22;3.00;;;;;;;24.51;63.67;99922.78;5038835;28;20113;-82
2023/09/20 13:03:11;;;;;;;4.70;3.42;;;;;;;24.40;64.01;99918.47;5040258;28;20087;-81
2023/09/20 13:05:38;;;;;;;5.30;3.00;;;;;;;24.37;64.02;99919.00;5041159;28;20056;-83
2023/09/20 13:08:06;;;;;;;6.80;3.05;;;;;;;24.17;63.31;99901.78;5053086;28;20054;-83
2023/09/20 13:10:33;;;;;;;6.47;4.00;;;;;;;24.17;63.50;99901.78;5058801;28;20045;-82
2023/09/20 13:13:02;;;;;;;5.85;3.35;;;;;;;24.29;62.97;99892.75;5025694;28;20049;-83
2023/09/20 13:15:31;;;;;;;7.85;3.60;;;;;;;24.39;63.04;99892.78;5041960;28;20059;-82
2023/09/20 13:18:09;;;;;;;6.15;3.33;;;;;;;24.35;62.19;99878.34;5040452;28;20068;-82
2023/09/20 13:20:37;;;;;;;8.32;3.00;;;;;;;24.40;62.67;99894.41;5036645;28;20041;-83